Time;durP1;ratioP1;P1;durP2;ratioP2;P2;SDS_P1;SDS_P2;PMS_P1;PMS_P2;Temp;Humidity;BMP_temperature;BMP_pressure;BME280_temperature;BME280_humidity;BME280_pressure;Samples;Min_cycle;Max_cycle;Signal;HPM_P1;HPM_P2
2021/01/26 00:02:12;;;;;;;7.90;2.63;;;2.20;99.90;;;;;;5049144;28;20439;-54
2021/01/26 00:04:39;;;;;;;5.60;2.83;;;2.20;99.90;;;;;;5047431;28;20060;-57
2021/01/26 00:07:04;;;;;;;7.57;3.20;;;2.20;99.90;;;;;;5049041;28;20033;-54
2021/01/26 00:09:30;;;;;;;6.80;2.97;;;2.20;99.90;;;;;;5048576;28;20471;-52
2021/01/26 00:11:56;;;;;;;6.38;3.30;;;2.20;99.90;;;;;;5048487;28;20519;-55
2021/01/26 00:14:22;;;;;;;4.68;2.40;;;2.20;99.90;;;;;;5046628;28;20090;-52
2021/01/26 00:16:48;;;;;;;6.95;2.80;;;2.20;99.90;;;;;;5048524;28;20049;-52
2021/01/26 00:19:14;;;;;;;4.72;2.38;;;2.20;99.90;;;;;;5048079;28;20521;-55
2021/01/26 00:21:40;;;;;;;8.13;3.13;;;2.20;99.90;;;;;;5049124;28;20399;-52
2021/01/26 00:24:06;;;;;;;7.15;2.85;;;2.20;99.90;;;;;;5047532;28;20511;-55
2021/01/26 00:26:34;;;;;;;4.20;2.30;;;2.20;99.90;;;;;;5049045;28;20419;-52
2021/01/26 00:29:00;;;;;;;5.93;2.50;;;2.30;99.90;;;;;;5047898;28;20033;-54
2021/01/26 00:31:26;;;;;;;6.25;2.78;;;2.30;99.90;;;;;;5047614;28;20412;-55
2021/01/26 00:33:52;;;;;;;6.00;2.65;;;2.20;99.90;;;;;;5046652;28;20033;-57
2021/01/26 00:36:21;;;;;;;6.13;3.10;;;2.30;99.90;;;;;;5048612;28;20029;-55
2021/01/26 00:38:47;;;;;;;8.40;3.20;;;2.30;99.90;;;;;;5046699;28;20385;-53
2021/01/26 00:41:12;;;;;;;8.15;3.38;;;2.30;99.90;;;;;;5047675;28;20044;-57
2021/01/26 00:43:38;;;;;;;5.63;3.20;;;2.20;99.90;;;;;;5046539;28;20040;-55
2021/01/26 00:46:04;;;;;;;7.05;3.15;;;2.20;99.90;;;;;;5037140;28;20056;-52
2021/01/26 00:48:29;;;;;;;6.35;3.75;;;2.00;99.90;;;;;;5047569;28;20041;-56
2021/01/26 00:50:55;;;;;;;5.57;2.33;;;2.00;99.90;;;;;;5048323;28;20485;-56
2021/01/26 00:53:21;;;;;;;6.30;2.78;;;2.00;99.90;;;;;;5046398;28;20064;-55
2021/01/26 00:55:47;;;;;;;6.30;3.20;;;2.00;99.90;;;;;;5047689;28;20032;-57
2021/01/26 00:58:14;;;;;;;5.65;2.85;;;1.90;99.90;;;;;;5046742;28;20079;-56
2021/01/26 01:00:40;;;;;;;8.05;3.38;;;1.90;99.90;;;;;;5048530;28;20048;-53
2021/01/26 01:03:06;;;;;;;6.95;3.20;;;1.90;99.90;;;;;;5047445;28;20392;-57
2021/01/26 01:05:32;;;;;;;7.50;2.80;;;1.90;99.90;;;;;;5046461;28;20504;-57
2021/01/26 01:07:59;;;;;;;4.68;2.58;;;1.90;99.90;;;;;;5048346;28;20073;-57
2021/01/26 01:10:28;;;;;;;8.43;2.75;;;1.90;99.90;;;;;;5047604;28;20436;-55
2021/01/26 01:12:54;;;;;;;5.45;3.25;;;1.90;99.90;;;;;;5047951;28;20157;-58
2021/01/26 01:15:21;;;;;;;7.13;2.85;;;1.90;99.90;;;;;;5045587;28;20116;-56
2021/01/26 01:17:47;;;;;;;6.97;3.13;;;1.90;99.90;;;;;;5047450;28;20068;-56
2021/01/26 01:20:15;;;;;;;5.65;2.78;;;1.90;99.90;;;;;;5047302;28;20032;-56
2021/01/26 01:22:41;;;;;;;4.85;2.72;;;1.80;99.90;;;;;;5049408;28;20352;-55
2021/01/26 01:25:07;;;;;;;4.03;2.20;;;1.80;99.90;;;;;;5051615;28;20044;-57
2021/01/26 01:27:33;;;;;;;6.00;2.50;;;1.70;99.90;;;;;;5052221;28;20136;-55
2021/01/26 01:29:59;;;;;;;6.95;2.75;;;1.70;99.90;;;;;;5051712;28;20128;-54
2021/01/26 01:32:24;;;;;;;6.45;2.85;;;1.70;99.90;;;;;;5051203;28;20663;-54
2021/01/26 01:34:50;;;;;;;5.28;2.70;;;1.60;99.90;;;;;;5050257;28;20511;-57
2021/01/26 01:37:16;;;;;;;6.15;2.47;;;1.70;99.90;;;;;;5052353;28;20040;-55
2021/01/26 01:39:41;;;;;;;6.28;2.85;;;1.80;99.90;;;;;;5050617;28;20503;-55
2021/01/26 01:42:11;;;;;;;6.75;2.80;;;1.80;99.90;;;;;;5051566;28;20082;-56
2021/01/26 01:44:37;;;;;;;8.00;3.17;;;1.80;99.90;;;;;;5050460;28;20037;-58
2021/01/26 01:47:08;;;;;;;5.97;3.10;;;1.80;99.90;;;;;;5051786;28;20070;-56
2021/01/26 01:49:42;;;;;;;6.72;2.92;;;1.80;99.90;;;;;;5051151;28;20048;-57
2021/01/26 01:52:13;;;;;;;6.00;3.28;;;1.80;99.90;;;;;;5052019;28;20076;-56
2021/01/26 01:54:45;;;;;;;8.90;2.70;;;1.80;99.90;;;;;;5050110;28;20150;-58
2021/01/26 01:57:32;;;;;;;4.18;1.90;;;1.70;99.90;;;;;;5051699;28;20048;-58
2021/01/26 02:00:08;;;;;;;7.43;2.85;;;1.80;99.90;;;;;;5050479;28;20033;-57
2021/01/26 02:02:37;;;;;;;5.57;2.65;;;1.70;99.90;;;;;;5051731;28;20563;-54
2021/01/26 02:05:04;;;;;;;6.18;2.63;;;1.70;99.90;;;;;;5050318;28;20044;-55
2021/01/26 02:07:32;;;;;;;4.78;2.55;;;1.60;99.90;;;;;;5051915;28;20103;-53
2021/01/26 02:09:58;;;;;;;4.75;2.95;;;1.60;99.90;;;;;;5050356;28;20477;-55
2021/01/26 02:12:24;;;;;;;4.05;2.03;;;1.60;99.90;;;;;;5051494;28;20099;-55
2021/01/26 02:14:56;;;;;;;3.58;1.73;;;1.60;99.90;;;;;;5050544;28;20041;-54
2021/01/26 02:17:31;;;;;;;3.78;2.08;;;1.50;99.90;;;;;;5051530;28;20048;-54
2021/01/26 02:20:50;;;;;;;3.80;2.05;;;1.60;99.90;;;;;;5048225;28;20040;-56
2021/01/26 02:23:47;;;;;;;6.15;2.33;;;1.60;99.90;;;;;;5051376;28;20132;-54
2021/01/26 02:27:04;;;;;;;5.30;2.13;;;1.50;99.90;;;;;;5048292;28;20635;-56
2021/01/26 02:29:40;;;;;;;4.72;2.40;;;1.50;99.90;;;;;;5022305;28;20037;-57
2021/01/26 02:32:21;;;;;;;4.50;2.22;;;1.50;99.90;;;;;;5049099;28;20492;-56
2021/01/26 02:35:08;;;;;;;5.70;3.15;;;1.40;99.90;;;;;;5049806;28;20033;-53
2021/01/26 02:38:16;;;;;;;6.47;2.78;;;1.40;99.90;;;;;;5051018;28;20319;-53
2021/01/26 02:40:55;;;;;;;6.15;2.20;;;1.30;99.90;;;;;;5049858;28;20037;-54
2021/01/26 02:43:50;;;;;;;5.25;2.47;;;1.30;99.90;;;;;;5050783;28;20414;-58
2021/01/26 02:46:23;;;;;;;6.63;2.92;;;1.30;99.90;;;;;;5045357;28;20484;-55
2021/01/26 02:51:49;;;;;;;3.65;2.35;;;1.20;99.90;;;;;;5058719;22;20062;-54
2021/01/26 02:54:31;;;;;;;8.65;2.85;;;1.20;99.90;;;;;;5070029;28;20047;-52
2021/01/26 02:57:48;;;;;;;6.00;2.75;;;1.20;99.90;;;;;;5069533;28;20438;-55
2021/01/26 03:00:21;;;;;;;7.97;2.95;;;1.20;99.90;;;;;;5036206;28;20407;-55
2021/01/26 03:03:04;;;;;;;4.72;1.85;;;1.30;99.90;;;;;;5060480;28;20056;-57
2021/01/26 03:05:42;;;;;;;5.10;2.10;;;1.40;99.90;;;;;;5062356;28;20071;-57
2021/01/26 03:08:31;;;;;;;4.00;1.40;;;1.40;99.90;;;;;;5068333;28;20503;-57
2021/01/26 03:11:04;;;;;;;3.80;1.67;;;1.50;99.90;;;;;;5069660;28;20168;-54
2021/01/26 03:13:31;;;;;;;3.08;1.10;;;1.40;99.90;;;;;;5068443;28;20107;-56
2021/01/26 03:16:07;;;;;;;4.15;1.63;;;1.40;99.90;;;;;;5070266;28;20051;-56
2021/01/26 03:18:56;;;;;;;3.55;1.35;;;1.40;99.90;;;;;;5068626;28;20437;-56
2021/01/26 03:21:24;;;;;;;3.30;1.63;;;1.40;99.90;;;;;;5069507;28;20036;-56
2021/01/26 03:23:58;;;;;;;4.70;1.63;;;1.30;99.90;;;;;;5067120;28;20043;-57
2021/01/26 03:26:27;;;;;;;5.38;2.33;;;1.30;99.90;;;;;;5070310;28;20124;-53
2021/01/26 03:28:56;;;;;;;3.88;1.77;;;1.30;99.90;;;;;;5069652;28;20491;-56
2021/01/26 03:31:49;;;;;;;4.80;2.15;;;1.20;99.90;;;;;;5067111;28;20425;-57
2021/01/26 03:34:15;;;;;;;5.05;1.92;;;1.20;99.90;;;;;;5066603;28;20071;-56
2021/01/26 03:36:41;;;;;;;6.00;2.60;;;1.00;99.90;;;;;;5069878;28;20021;-56
2021/01/26 03:39:08;;;;;;;3.92;2.17;;;1.00;99.90;;;;;;5065831;28;20058;-50
2021/01/26 03:41:33;;;;;;;4.70;1.88;;;1.00;99.90;;;;;;5049713;28;20099;-54
2021/01/26 03:44:00;;;;;;;4.40;1.95;;;1.00;99.90;;;;;;5048633;28;20033;-55
2021/01/26 03:46:44;;;;;;;3.58;1.85;;;0.90;99.90;;;;;;5068384;28;20511;-57
2021/01/26 03:49:26;;;;;;;3.75;1.20;;;0.90;99.90;;;;;;5068600;28;20037;-57
2021/01/26 03:52:11;;;;;;;4.07;1.40;;;1.00;99.90;;;;;;5052922;28;20481;-55
2021/01/26 03:54:41;;;;;;;2.67;1.00;;;1.20;99.90;;;;;;5040676;28;20119;-54
2021/01/26 03:57:21;;;;;;;6.90;1.75;;;1.10;99.90;;;;;;5049394;28;20344;-54
2021/01/26 03:59:53;;;;;;;3.03;1.35;;;0.90;99.90;;;;;;5047613;28;20029;-55
2021/01/26 04:02:30;;;;;;;3.72;1.27;;;0.80;99.90;;;;;;5049461;28;20036;-56
2021/01/26 04:05:14;;;;;;;2.10;0.63;;;0.50;99.90;;;;;;5048661;28;20106;-57
2021/01/26 04:07:44;;;;;;;2.30;0.88;;;0.40;99.90;;;;;;5049583;28;20093;-54
2021/01/26 04:10:10;;;;;;;1.92;0.65;;;0.30;99.90;;;;;;5047460;28;20061;-58
2021/01/26 04:12:39;;;;;;;3.38;1.38;;;0.20;99.90;;;;;;5049329;28;20064;-57
2021/01/26 04:15:13;;;;;;;3.15;1.27;;;0.20;99.90;;;;;;5047338;28;20044;-59
2021/01/26 04:17:43;;;;;;;3.08;1.13;;;0.10;99.90;;;;;;5047172;28;20060;-59
2021/01/26 04:20:23;;;;;;;2.67;0.90;;;0.10;99.90;;;;;;5046190;28;20048;-55
2021/01/26 04:22:55;;;;;;;2.00;1.10;;;0.00;99.90;;;;;;5047305;28;20404;-52
2021/01/26 04:25:29;;;;;;;3.90;0.80;;;0.10;99.90;;;;;;5046881;28;20041;-55
2021/01/26 04:27:55;;;;;;;3.25;1.33;;;0.40;99.90;;;;;;5047961;28;20249;-54
2021/01/26 04:30:22;;;;;;;2.63;0.80;;;0.40;99.90;;;;;;5048521;28;20033;-57
2021/01/26 04:33:05;;;;;;;2.95;1.00;;;0.40;99.90;;;;;;5033749;28;20144;-55
2021/01/26 04:35:31;;;;;;;6.35;1.92;;;0.20;99.90;;;;;;5047618;28;20140;-57
2021/01/26 04:37:57;;;;;;;5.28;1.50;;;0.40;99.90;;;;;;5047782;28;20060;-55
2021/01/26 04:40:24;;;;;;;2.97;1.42;;;0.30;99.90;;;;;;5048802;28;20039;-55
2021/01/26 04:42:55;;;;;;;3.45;0.88;;;0.20;99.90;;;;;;5047531;28;20475;-52
2021/01/26 04:45:59;;;;;;;5.57;1.55;;;0.00;99.90;;;;;;5047718;28;20112;-52
2021/01/26 04:48:37;;;;;;;10.63;2.05;;;-0.10;99.90;;;;;;5048071;28;20044;-56
2021/01/26 04:51:16;;;;;;;5.97;2.50;;;-0.10;99.90;;;;;;5057967;28;20221;-59
2021/01/26 04:53:45;;;;;;;4.55;2.05;;;-0.20;99.90;;;;;;5067543;28;20039;-59
2021/01/26 04:56:37;;;;;;;4.80;2.00;;;-0.20;99.90;;;;;;5067721;28;20032;-56
2021/01/26 04:59:28;;;;;;;6.47;2.95;;;0.00;99.90;;;;;;5048353;28;20033;-56
2021/01/26 05:02:24;;;;;;;6.63;3.05;;;0.20;99.90;;;;;;5053457;28;20354;-54
2021/01/26 05:05:11;;;;;;;5.78;3.00;;;0.40;99.90;;;;;;5068257;28;20395;-53
2021/01/26 05:07:48;;;;;;;6.05;2.70;;;0.50;99.90;;;;;;5067420;28;20044;-58
2021/01/26 05:10:41;;;;;;;5.45;2.30;;;0.50;99.90;;;;;;5068427;28;20387;-58
2021/01/26 05:13:15;;;;;;;4.63;2.00;;;0.40;99.90;;;;;;5060817;28;20035;-58
2021/01/26 05:15:46;;;;;;;4.93;2.60;;;0.20;99.90;;;;;;5048317;28;20056;-55
2021/01/26 05:18:23;;;;;;;4.25;1.70;;;0.00;99.90;;;;;;5064136;28;20032;-53
2021/01/26 05:20:56;;;;;;;4.38;2.10;;;-0.10;99.90;;;;;;5068598;28;20036;-57
2021/01/26 05:23:29;;;;;;;5.82;2.42;;;-0.20;99.90;;;;;;5066614;28;20097;-55
2021/01/26 05:25:55;;;;;;;5.63;2.47;;;-0.10;99.90;;;;;;5068485;28;20041;-52
2021/01/26 05:28:22;;;;;;;5.93;2.25;;;-0.30;99.90;;;;;;5066364;28;20101;-56
2021/01/26 05:30:55;;;;;;;4.90;2.47;;;-0.10;99.90;;;;;;5067563;28;20057;-56
2021/01/26 05:33:21;;;;;;;6.28;2.20;;;0.10;99.90;;;;;;5063921;28;20048;-53
2021/01/26 05:35:53;;;;;;;5.63;2.20;;;0.40;99.90;;;;;;5066269;28;20495;-57
2021/01/26 05:38:20;;;;;;;5.40;1.85;;;0.60;99.90;;;;;;5068131;28;20462;-56
2021/01/26 05:40:54;;;;;;;6.55;2.60;;;0.60;99.90;;;;;;5067011;28;20055;-56
2021/01/26 05:43:24;;;;;;;7.20;3.20;;;0.70;99.90;;;;;;5067281;28;20086;-58
2021/01/26 05:45:55;;;;;;;4.65;2.50;;;0.70;99.90;;;;;;5066000;28;20028;-53
2021/01/26 05:48:24;;;;;;;3.97;2.28;;;0.70;99.90;;;;;;5066424;28;20507;-51
2021/01/26 05:50:52;;;;;;;4.95;2.47;;;0.60;99.90;;;;;;5067740;28;20056;-56
2021/01/26 05:53:27;;;;;;;4.28;1.77;;;0.70;99.90;;;;;;5066882;28;20035;-53
2021/01/26 05:56:10;;;;;;;4.85;2.08;;;0.60;99.90;;;;;;5067771;28;20147;-56
2021/01/26 05:58:39;;;;;;;3.53;1.40;;;0.50;99.90;;;;;;5059795;28;20041;-57
2021/01/26 06:01:23;;;;;;;5.82;1.80;;;0.70;99.90;;;;;;5063189;28;20036;-57
2021/01/26 06:04:09;;;;;;;5.03;1.98;;;0.80;99.90;;;;;;5067800;28;20055;-55
2021/01/26 06:06:55;;;;;;;5.00;2.17;;;0.80;99.90;;;;;;5067013;28;20408;-57
2021/01/26 06:09:49;;;;;;;8.48;3.65;;;0.80;99.90;;;;;;5068119;28;20033;-56
2021/01/26 06:12:14;;;;;;;4.65;2.40;;;0.80;99.90;;;;;;5068223;28;20041;-52
2021/01/26 06:15:02;;;;;;;4.85;2.10;;;0.80;99.90;;;;;;5070274;28;20090;-56
2021/01/26 06:17:35;;;;;;;7.20;2.90;;;0.80;99.90;;;;;;5063352;28;20048;-56
2021/01/26 06:20:04;;;;;;;7.32;2.90;;;0.60;99.90;;;;;;5066400;28;20044;-56
2021/01/26 06:22:31;;;;;;;5.68;2.63;;;0.40;99.90;;;;;;5043024;28;20039;-56
2021/01/26 06:25:00;;;;;;;5.70;2.70;;;0.30;99.90;;;;;;5064927;28;20033;-56
2021/01/26 06:27:45;;;;;;;7.40;3.13;;;0.30;99.90;;;;;;5070111;28;20071;-55
2021/01/26 06:30:14;;;;;;;4.95;3.08;;;0.40;99.90;;;;;;5070931;28;20032;-49
2021/01/26 06:33:16;;;;;;;5.75;3.15;;;0.50;99.90;;;;;;5069558;28;20452;-58
2021/01/26 06:36:00;;;;;;;7.13;3.13;;;0.50;99.90;;;;;;5070904;28;20550;-55
2021/01/26 06:38:50;;;;;;;12.20;3.17;;;0.50;99.90;;;;;;5068824;28;20037;-57
2021/01/26 06:41:53;;;;;;;6.20;2.78;;;0.60;99.90;;;;;;5069674;28;20101;-57
2021/01/26 06:44:49;;;;;;;11.60;2.42;;;0.60;99.90;;;;;;5069688;28;20063;-50
2021/01/26 06:47:33;;;;;;;4.93;2.03;;;0.60;99.90;;;;;;5068925;28;20047;-57
2021/01/26 06:50:24;;;;;;;6.32;3.05;;;0.60;99.90;;;;;;5068816;28;20037;-55
2021/01/26 06:53:15;;;;;;;9.65;3.67;;;0.60;99.90;;;;;;5038989;28;20074;-56
2021/01/26 06:55:53;;;;;;;9.77;3.17;;;0.70;99.90;;;;;;5049802;28;20048;-53
2021/01/26 06:58:43;;;;;;;5.55;2.30;;;0.70;99.90;;;;;;5035627;28;20389;-55
2021/01/26 07:01:48;;;;;;;5.00;2.30;;;0.80;99.90;;;;;;5046784;28;20029;-55
2021/01/26 07:05:05;;;;;;;5.38;2.38;;;0.90;99.90;;;;;;5045545;28;20048;-58
2021/01/26 07:07:44;;;;;;;7.60;3.15;;;0.90;99.90;;;;;;5033082;28;20098;-56
2021/01/26 07:10:28;;;;;;;7.00;2.95;;;0.60;99.90;;;;;;5049758;28;20419;-56
2021/01/26 07:13:09;;;;;;;9.65;2.47;;;0.40;99.90;;;;;;5048709;28;20159;-56
2021/01/26 07:15:43;;;;;;;5.78;2.45;;;0.40;99.90;;;;;;5049734;28;20055;-55
2021/01/26 07:18:36;;;;;;;5.15;2.17;;;0.40;99.90;;;;;;5047961;28;20037;-52
2021/01/26 07:21:05;;;;;;;12.32;4.07;;;0.60;99.90;;;;;;5043224;28;20047;-57
2021/01/26 07:23:40;;;;;;;8.48;3.65;;;0.70;99.90;;;;;;5039909;28;20142;-55
2021/01/26 07:26:29;;;;;;;12.63;3.85;;;0.70;99.90;;;;;;5030281;28;20510;-54
2021/01/26 07:29:13;;;;;;;11.18;3.95;;;0.70;99.90;;;;;;5041627;28;20073;-55
2021/01/26 07:31:55;;;;;;;11.85;4.35;;;0.70;99.90;;;;;;5030603;28;20036;-55
2021/01/26 07:34:39;;;;;;;9.38;3.88;;;0.70;99.90;;;;;;5047667;28;20096;-57
2021/01/26 07:37:08;;;;;;;10.88;4.00;;;0.70;99.90;;;;;;5049492;28;20438;-58
2021/01/26 07:39:55;;;;;;;8.73;3.83;;;0.60;99.90;;;;;;5038584;28;20500;-55
2021/01/26 07:42:32;;;;;;;4.25;1.83;;;0.70;99.90;;;;;;5029858;28;20025;-58
2021/01/26 07:45:18;;;;;;;3.78;1.52;;;0.80;99.90;;;;;;5045079;28;20041;-56
2021/01/26 07:48:00;;;;;;;3.55;1.30;;;1.20;99.90;;;;;;5048840;28;20029;-56
2021/01/26 07:50:31;;;;;;;3.45;1.15;;;1.40;99.90;;;;;;5050990;28;20527;-56
2021/01/26 07:53:05;;;;;;;4.35;1.67;;;1.40;99.90;;;;;;5069363;28;20039;-54
2021/01/26 07:55:42;;;;;;;3.25;1.10;;;1.50;99.90;;;;;;5069517;28;20127;-54
2021/01/26 07:58:12;;;;;;;4.22;1.38;;;1.60;99.90;;;;;;5069336;28;20060;-54
2021/01/26 08:00:46;;;;;;;5.15;1.38;;;1.60;99.90;;;;;;5069253;28;20290;-51
2021/01/26 08:03:12;;;;;;;5.70;1.35;;;1.70;99.90;;;;;;5062659;28;20491;-55
2021/01/26 08:05:49;;;;;;;6.60;2.00;;;1.80;99.90;;;;;;5062324;28;20115;-54
2021/01/26 08:08:19;;;;;;;7.57;2.47;;;1.80;99.90;;;;;;5065703;28;20032;-55
2021/01/26 08:10:46;;;;;;;7.10;2.05;;;1.70;99.90;;;;;;5069081;28;20032;-53
2021/01/26 08:13:27;;;;;;;6.63;2.17;;;1.80;99.90;;;;;;5056279;28;20398;-56
2021/01/26 08:15:53;;;;;;;6.43;2.42;;;1.80;99.90;;;;;;5053129;28;20029;-58
2021/01/26 08:18:32;;;;;;;5.55;2.40;;;1.70;99.90;;;;;;5067083;28;20484;-58
2021/01/26 08:20:58;;;;;;;9.18;3.55;;;1.80;99.90;;;;;;5065876;28;20036;-55
2021/01/26 08:23:29;;;;;;;8.52;3.38;;;1.70;99.90;;;;;;5065222;28;20032;-56
2021/01/26 08:25:56;;;;;;;8.13;2.95;;;1.70;99.90;;;;;;5063116;28;20503;-58
2021/01/26 08:28:41;;;;;;;8.93;3.28;;;1.70;99.90;;;;;;5050045;28;20037;-59
2021/01/26 08:31:29;;;;;;;8.85;2.38;;;1.80;99.90;;;;;;5064718;28;20035;-55
2021/01/26 08:34:16;;;;;;;6.80;3.20;;;1.90;99.90;;;;;;5056453;28;20491;-58
2021/01/26 08:36:42;;;;;;;8.70;2.42;;;2.10;99.90;;;;;;5063726;28;20347;-59
2021/01/26 08:39:36;;;;;;;5.78;2.05;;;2.20;99.90;;;;;;5064210;28;20032;-58
2021/01/26 08:42:02;;;;;;;8.20;2.83;;;2.20;99.90;;;;;;5060825;28;20032;-57
2021/01/26 08:44:28;;;;;;;12.07;2.38;;;2.20;99.90;;;;;;5066464;28;20059;-53
2021/01/26 08:46:55;;;;;;;9.30;2.97;;;2.30;99.90;;;;;;5065394;28;20744;-58
2021/01/26 08:49:23;;;;;;;22.63;2.78;;;2.40;99.90;;;;;;5068348;28;20028;-55
2021/01/26 08:51:50;;;;;;;16.13;3.63;;;2.40;99.90;;;;;;5050976;28;20459;-53
2021/01/26 08:54:38;;;;;;;9.13;2.35;;;2.50;99.90;;;;;;5042910;28;20090;-58
2021/01/26 08:57:27;;;;;;;11.55;2.72;;;2.50;99.90;;;;;;5048427;28;20032;-58
2021/01/26 08:59:56;;;;;;;7.10;3.05;;;2.60;99.90;;;;;;5029515;28;20032;-58
2021/01/26 09:02:43;;;;;;;10.77;2.45;;;2.60;99.90;;;;;;5046758;28;20033;-59
2021/01/26 09:05:10;;;;;;;9.20;2.42;;;2.60;99.90;;;;;;5046961;28;20091;-55
2021/01/26 09:07:48;;;;;;;7.70;2.03;;;2.70;99.90;;;;;;5044038;28;20033;-55
2021/01/26 09:10:41;;;;;;;6.35;2.38;;;2.70;99.90;;;;;;5042424;28;20500;-55
2021/01/26 09:13:32;;;;;;;11.10;2.42;;;2.80;99.90;;;;;;5046157;28;20032;-52
2021/01/26 09:16:10;;;;;;;9.35;1.60;;;3.00;99.90;;;;;;5041340;28;20041;-56
2021/01/26 09:18:37;;;;;;;4.53;1.73;;;3.00;99.90;;;;;;5047698;28;20041;-56
2021/01/26 09:21:13;;;;;;;8.73;2.60;;;3.00;99.90;;;;;;5043436;28;20056;-55
2021/01/26 09:23:41;;;;;;;7.10;1.65;;;3.10;99.90;;;;;;5042010;28;20045;-54
2021/01/26 09:26:12;;;;;;;4.78;2.20;;;3.20;99.90;;;;;;5043571;28;20120;-55
2021/01/26 09:28:43;;;;;;;9.10;1.58;;;3.20;99.90;;;;;;5045446;28;20403;-55
2021/01/26 09:31:12;;;;;;;9.93;2.00;;;3.20;99.90;;;;;;5048183;28;20064;-58
2021/01/26 09:33:38;;;;;;;7.88;2.13;;;3.30;99.90;;;;;;5045737;28;20029;-56
2021/01/26 09:36:04;;;;;;;13.68;1.75;;;3.40;99.90;;;;;;5042925;28;20111;-53
2021/01/26 09:38:45;;;;;;;3.85;1.27;;;3.50;99.90;;;;;;5045588;28;20123;-56
2021/01/26 09:41:26;;;;;;;5.10;2.47;;;3.40;99.90;;;;;;5045379;28;20625;-53
2021/01/26 09:44:03;;;;;;;4.95;1.05;;;3.50;99.90;;;;;;5044762;28;20037;-55
2021/01/26 09:46:36;;;;;;;7.80;1.30;;;3.50;99.90;;;;;;5051948;28;20025;-56
2021/01/26 09:49:19;;;;;;;4.30;1.20;;;3.60;99.90;;;;;;5049468;28;20081;-55
2021/01/26 09:52:03;;;;;;;2.45;0.90;;;3.60;99.90;;;;;;5047148;28;20067;-55
2021/01/26 09:54:34;;;;;;;4.00;1.50;;;3.60;99.90;;;;;;5051814;28;20036;-57
2021/01/26 09:57:02;;;;;;;7.10;2.33;;;3.70;99.90;;;;;;5064271;28;20131;-59
2021/01/26 09:59:31;;;;;;;5.45;1.45;;;3.60;99.90;;;;;;5071421;28;20103;-58
2021/01/26 10:02:00;;;;;;;6.97;1.27;;;3.60;99.90;;;;;;5068787;28;20039;-55
2021/01/26 10:04:27;;;;;;;3.45;1.38;;;3.70;99.90;;;;;;5071600;28;20123;-56
2021/01/26 10:06:59;;;;;;;3.60;1.20;;;3.80;99.90;;;;;;5070384;28;20067;-58
2021/01/26 10:09:33;;;;;;;4.40;1.55;;;4.00;99.90;;;;;;5062990;28;20085;-56
2021/01/26 10:12:22;;;;;;;7.32;2.13;;;4.00;99.90;;;;;;5070559;28;20056;-55
2021/01/26 10:15:29;;;;;;;1.63;0.68;;;4.10;99.90;;;;;;5059762;28;20033;-56
2021/01/26 10:18:08;;;;;;;1.70;0.68;;;4.20;97.40;;;;;;5065948;28;20037;-57
2021/01/26 10:20:36;;;;;;;1.45;0.40;;;4.50;94.40;;;;;;5066506;28;20024;-54
2021/01/26 10:23:10;;;;;;;1.95;0.63;;;4.60;94.50;;;;;;5067365;28;20177;-58
2021/01/26 10:25:38;;;;;;;1.67;0.38;;;4.60;95.60;;;;;;5069152;28;20110;-57
2021/01/26 10:28:21;;;;;;;1.20;0.30;;;4.60;92.50;;;;;;5068483;28;20028;-58
2021/01/26 10:30:49;;;;;;;1.70;0.30;;;4.70;93.60;;;;;;5066185;28;20110;-57
2021/01/26 10:33:37;;;;;;;3.00;0.60;;;4.70;95.00;;;;;;5063895;28;20058;-57
2021/01/26 10:36:25;;;;;;;2.05;0.60;;;4.80;92.50;;;;;;5069392;28;20386;-57
2021/01/26 10:38:51;;;;;;;3.28;0.93;;;4.90;94.80;;;;;;5068521;28;20050;-56
2021/01/26 10:41:25;;;;;;;2.88;1.08;;;4.90;97.20;;;;;;5069707;28;20036;-56
2021/01/26 10:44:09;;;;;;;3.33;0.90;;;4.70;98.30;;;;;;5068269;28;20571;-58
2021/01/26 10:46:43;;;;;;;1.63;0.68;;;4.70;98.10;;;;;;5069770;28;20056;-59
2021/01/26 10:49:33;;;;;;;2.40;0.60;;;4.70;96.10;;;;;;5055531;28;20033;-56
2021/01/26 10:52:06;;;;;;;1.40;0.65;;;4.80;96.70;;;;;;5054672;28;20132;-57
2021/01/26 10:54:31;;;;;;;2.60;0.70;;;4.80;94.30;;;;;;5068835;28;20035;-56
2021/01/26 10:56:57;;;;;;;1.27;0.40;;;5.00;95.60;;;;;;5065648;28;20048;-59
2021/01/26 10:59:23;;;;;;;2.80;0.40;;;4.90;92.60;;;;;;5066465;28;20400;-58
2021/01/26 11:01:49;;;;;;;2.67;0.40;;;5.10;90.70;;;;;;5066634;28;20074;-56
2021/01/26 11:04:17;;;;;;;1.67;0.55;;;5.20;88.70;;;;;;5068967;28;20094;-58
2021/01/26 11:06:43;;;;;;;1.30;0.60;;;5.40;87.10;;;;;;5068357;28;20032;-56
2021/01/26 11:09:12;;;;;;;1.55;0.55;;;5.40;90.60;;;;;;5065898;28;20094;-58
2021/01/26 11:11:38;;;;;;;2.22;0.40;;;5.40;91.90;;;;;;5068684;28;20040;-58
2021/01/26 11:14:06;;;;;;;0.63;0.30;;;5.50;90.70;;;;;;5066454;28;20036;-58
2021/01/26 11:16:32;;;;;;;1.13;0.35;;;5.50;86.60;;;;;;5068209;28;20085;-56
2021/01/26 11:18:59;;;;;;;1.88;0.43;;;5.60;84.90;;;;;;5069077;28;20110;-57
2021/01/26 11:21:26;;;;;;;1.02;0.45;;;5.60;83.40;;;;;;5067482;28;20028;-57
2021/01/26 11:23:53;;;;;;;2.47;0.80;;;5.60;86.70;;;;;;5050265;28;20036;-58
2021/01/26 11:26:22;;;;;;;2.05;0.80;;;5.60;89.00;;;;;;5068774;28;20492;-55
2021/01/26 11:28:49;;;;;;;1.20;0.45;;;5.70;90.40;;;;;;5068369;28;20079;-53
2021/01/26 11:31:17;;;;;;;2.05;0.40;;;5.60;89.60;;;;;;5066257;28;20090;-55
2021/01/26 11:33:43;;;;;;;1.27;0.40;;;5.60;90.80;;;;;;5069746;28;20033;-56
2021/01/26 11:36:09;;;;;;;2.10;0.45;;;5.50;90.90;;;;;;5067535;28;20142;-55
2021/01/26 11:38:35;;;;;;;3.25;0.40;;;5.50;90.60;;;;;;5066712;28;20041;-56
2021/01/26 11:41:05;;;;;;;1.92;0.40;;;5.50;91.10;;;;;;5062058;28;20029;-55
2021/01/26 11:43:34;;;;;;;4.82;0.52;;;5.50;89.30;;;;;;5049884;28;20099;-56
2021/01/26 11:46:00;;;;;;;0.90;0.30;;;5.50;90.40;;;;;;5055163;28;20037;-56
2021/01/26 11:48:26;;;;;;;4.55;0.45;;;5.50;90.70;;;;;;5063284;28;20036;-56
2021/01/26 11:50:53;;;;;;;1.27;0.40;;;5.50;90.20;;;;;;5055553;28;20396;-53
2021/01/26 11:53:21;;;;;;;1.40;0.30;;;5.60;86.90;;;;;;5040578;28;20031;-55
2021/01/26 11:55:48;;;;;;;1.05;0.30;;;5.60;88.20;;;;;;5049221;28;20172;-51
2021/01/26 11:58:14;;;;;;;1.73;0.30;;;5.60;86.40;;;;;;5041576;28;20028;-55
2021/01/26 12:00:40;;;;;;;2.42;0.40;;;5.60;87.00;;;;;;5046427;28;20110;-54
2021/01/26 12:03:07;;;;;;;1.05;0.38;;;5.70;83.70;;;;;;5048249;28;20416;-55
2021/01/26 12:05:36;;;;;;;1.00;0.40;;;5.80;85.70;;;;;;5049200;28;20188;-55
2021/01/26 12:08:02;;;;;;;1.50;0.40;;;5.80;86.70;;;;;;5042099;28;20449;-55
2021/01/26 12:10:28;;;;;;;1.92;0.60;;;5.90;86.30;;;;;;5045248;28;20044;-51
2021/01/26 12:12:54;;;;;;;3.83;0.30;;;5.90;86.80;;;;;;5040845;28;20036;-53
2021/01/26 12:15:30;;;;;;;1.83;0.35;;;5.90;84.10;;;;;;5037319;28;20033;-54
2021/01/26 12:17:57;;;;;;;1.83;0.40;;;6.00;83.10;;;;;;5045740;28;20055;-58
2021/01/26 12:20:23;;;;;;;1.90;0.40;;;6.00;83.10;;;;;;5043785;28;20056;-55
2021/01/26 12:22:49;;;;;;;1.92;0.50;;;6.00;83.90;;;;;;5047953;28;20040;-57
2021/01/26 12:25:17;;;;;;;1.60;0.40;;;6.00;86.20;;;;;;5048648;28;20179;-55
2021/01/26 12:27:43;;;;;;;1.50;0.40;;;6.00;83.80;;;;;;5049041;28;20043;-57
2021/01/26 12:30:09;;;;;;;1.70;0.50;;;6.10;83.70;;;;;;5048622;28;20021;-57
2021/01/26 12:32:36;;;;;;;0.50;0.20;;;6.10;82.80;;;;;;5048968;28;20035;-56
2021/01/26 12:35:07;;;;;;;0.63;0.20;;;6.10;80.30;;;;;;5047335;28;20029;-56
2021/01/26 12:37:33;;;;;;;1.88;0.43;;;6.10;79.50;;;;;;5048528;28;20025;-57
2021/01/26 12:39:59;;;;;;;1.40;0.30;;;6.10;78.50;;;;;;5047645;28;20090;-58
2021/01/26 12:42:26;;;;;;;1.95;0.40;;;6.10;80.00;;;;;;5036833;28;20587;-57
2021/01/26 12:44:52;;;;;;;1.20;0.47;;;6.10;78.00;;;;;;5048356;28;20064;-53
2021/01/26 12:47:18;;;;;;;1.90;0.50;;;6.10;78.60;;;;;;5048324;28;20025;-52
2021/01/26 12:49:45;;;;;;;0.95;0.35;;;6.10;82.00;;;;;;5043665;28;20045;-55
2021/01/26 12:52:11;;;;;;;1.10;0.20;;;6.10;80.10;;;;;;5053369;28;20053;-54
2021/01/26 12:54:36;;;;;;;1.02;0.30;;;6.00;81.80;;;;;;5058280;28;20557;-52
2021/01/26 12:57:02;;;;;;;2.63;0.38;;;6.10;80.20;;;;;;5067998;28;20037;-55
2021/01/26 12:59:28;;;;;;;1.58;0.25;;;6.20;77.50;;;;;;5067745;28;20397;-56
2021/01/26 13:01:57;;;;;;;1.63;0.30;;;6.40;79.90;;;;;;5057964;28;20439;-54
2021/01/26 13:04:23;;;;;;;1.05;0.50;;;6.40;78.20;;;;;;5060366;28;20037;-53
2021/01/26 13:06:49;;;;;;;0.60;0.20;;;6.40;78.50;;;;;;5067300;28;20547;-55
2021/01/26 13:09:14;;;;;;;1.88;0.30;;;6.40;76.70;;;;;;5047572;28;20028;-56
2021/01/26 13:11:42;;;;;;;1.42;0.40;;;6.40;77.70;;;;;;5068428;28;20044;-53
2021/01/26 13:14:08;;;;;;;0.60;0.30;;;6.30;79.10;;;;;;5067402;28;20033;-54
2021/01/26 13:16:34;;;;;;;1.63;0.30;;;6.30;78.70;;;;;;5067857;28;20044;-53
2021/01/26 13:19:00;;;;;;;3.15;0.25;;;6.30;78.80;;;;;;5060284;28;20210;-55
2021/01/26 13:21:26;;;;;;;1.58;0.30;;;6.40;78.60;;;;;;5064247;28;20426;-52
2021/01/26 13:23:51;;;;;;;4.55;0.30;;;6.30;76.60;;;;;;5069634;28;20048;-55
2021/01/26 13:26:17;;;;;;;1.00;0.22;;;6.40;77.00;;;;;;5071513;28;20366;-53
2021/01/26 13:28:43;;;;;;;1.00;0.30;;;6.40;77.20;;;;;;5072324;28;20028;-56
2021/01/26 13:31:09;;;;;;;1.25;0.30;;;6.40;76.90;;;;;;5069264;28;20040;-54
2021/01/26 13:33:35;;;;;;;1.58;0.45;;;6.40;74.10;;;;;;5063272;28;20024;-51